Weather at Koggala Airport

Public forecast

Using degrees Celsius for public forecast. Weather courtesy of forecast.io.

Closest aviation weather report (METAR) to Koggala Airport

Report is more than 2 hours old.

Closest report is Mattala Rajapaksa International Airport, 51.1 nm (94.6 km) ENE.

2024/06/16 15:10 (retrieved 3 hours ago)

VCRI 161510Z 24008KT CAVOK 28/25 Q1009 NOSIG

Closest aviation forecast (TAF) to Koggala Airport

Closest forecast is Mattala Rajapaksa International Airport, 51.1 nm (94.6 km) ENE.

2024/06/16 18:00 (retrieved 17 seconds ago)

TAF VCRI 161700Z 1618/1724 25006KT 9999 FEW018 TX34/1707Z TN25/1700Z BECMG 1702//1704 26015G25KT BECMG 1715/1717 26007KT